CheckWX is a tool to help pilots better visualize weather data.  It is not intended as a substitute for an official pre-flight weather briefing.

21:26:28 UTC

KMSL METAR
Northwest Alabama Regional Airport
Muscle Shoals, Alabama, USA
Current

33 mins ago

KMSL 222053Z AUTO 29012G19KT 10SM FEW055 20/05 A3002 RMK AO2 SLP163 T02000050 55004 $
Observed
Oct-22 @ 20:53 UTC
Wind
  • 290° at 12 KTS
  • Gusting to 19 KTS
Visibility
10 SM
Flight Rules
VFR
Cloud Levels
  • Few at 5,500' AGL
Temperature
20°C / 68°F
Dewpoint
C / 41°F
Humidity
38%
Altimeter
30.02" Hg
Pressure
1016.62 hPa
Previous

2 hours ago

KMSL 221953Z AUTO 28016G20KT 10SM CLR 20/05 A3002 RMK AO2 SLP162 T02000050 $
Observed
Oct-22 @ 19:53 UTC
Wind
  • 280° at 16 KTS
  • Gusting to 20 KTS
Visibility
10 SM
Flight Rules
VFR
Cloud Levels
  • Clear skies
Temperature
20°C / 68°F
Dewpoint
C / 41°F
Humidity
38%
Altimeter
30.02" Hg
Pressure
1016.62 hPa
Previous

3 hours ago

KMSL 221853Z AUTO 28013G24KT 250V310 10SM CLR 20/06 A3002 RMK AO2 SLP163 T02000061 $
Observed
Oct-22 @ 18:53 UTC
Wind
  • 280° at 13 KTS
  • Gusting to 24 KTS
Visibility
10 SM
Flight Rules
VFR
Cloud Levels
  • Clear skies
Temperature
20°C / 68°F
Dewpoint
C / 43°F
Humidity
40%
Altimeter
30.02" Hg
Pressure
1016.62 hPa